createdAt,value
2022-11-16T00:02:12.572Z,8.00
2022-11-16T00:04:39.051Z,8.00
2022-11-16T00:07:05.592Z,9.00
2022-11-16T00:09:32.557Z,10.50
2022-11-16T00:12:03.564Z,8.00
2022-11-16T00:14:32.149Z,4.00
2022-11-16T00:16:58.878Z,3.50
2022-11-16T00:19:25.835Z,3.80
2022-11-16T00:21:53.189Z,3.60
2022-11-16T00:24:21.096Z,5.00
2022-11-16T00:26:47.529Z,6.00
2022-11-16T00:29:24.561Z,3.00
2022-11-16T00:31:51.395Z,4.40
2022-11-16T00:34:18.384Z,3.40
2022-11-16T00:36:45.322Z,4.00
2022-11-16T00:39:12.907Z,8.40
2022-11-16T00:41:39.435Z,4.00
2022-11-16T00:44:06.036Z,3.00
2022-11-16T00:46:32.553Z,2.00
2022-11-16T00:48:58.986Z,2.67
2022-11-16T00:51:25.448Z,3.60
2022-11-16T00:54:01.381Z,2.00
2022-11-16T00:56:27.792Z,0.50
2022-11-16T00:58:54.313Z,1.00
2022-11-16T01:01:20.849Z,0.75
2022-11-16T01:03:48.007Z,0.00
2022-11-16T01:06:15.175Z,0.00
2022-11-16T01:08:42.357Z,3.00
2022-11-16T01:11:27.729Z,1.00
2022-11-16T01:13:55.325Z,2.00
2022-11-16T01:16:22.732Z,0.00
2022-11-16T01:18:51.461Z,0.00
2022-11-16T01:21:18.211Z,1.40
2022-11-16T01:23:44.705Z,1.00
2022-11-16T01:26:11.199Z,4.00
2022-11-16T01:28:37.611Z,1.00
2022-11-16T01:31:04.090Z,1.00
2022-11-16T01:33:30.700Z,0.00
2022-11-16T01:35:57.100Z,2.00
2022-11-16T01:38:28.422Z,0.00
2022-11-16T01:40:56.108Z,1.60
2022-11-16T01:43:23.953Z,2.00
2022-11-16T01:45:50.845Z,1.00
2022-11-16T01:48:25.095Z,2.00
2022-11-16T01:50:51.785Z,0.60
2022-11-16T01:53:18.320Z,2.00
2022-11-16T01:55:46.715Z,3.00
2022-11-16T01:58:15.622Z,2.00
2022-11-16T02:00:42.091Z,0.80
2022-11-16T02:03:08.644Z,2.25
2022-11-16T02:05:58.318Z,2.60
2022-11-16T02:08:43.431Z,2.00
2022-11-16T02:11:24.898Z,2.00
2022-11-16T02:13:57.345Z,4.25
2022-11-16T02:16:48.334Z,0.20
2022-11-16T02:19:33.147Z,0.00
2022-11-16T02:22:07.141Z,2.00
2022-11-16T02:24:56.590Z,1.00
2022-11-16T02:27:36.711Z,0.60
2022-11-16T02:30:05.022Z,1.00
2022-11-16T02:32:31.477Z,1.00
2022-11-16T02:34:57.874Z,1.00
2022-11-16T02:37:26.339Z,3.60
2022-11-16T02:39:56.252Z,1.00
2022-11-16T02:42:28.669Z,1.00
2022-11-16T02:44:57.830Z,2.00
2022-11-16T02:47:27.780Z,2.00
2022-11-16T02:50:06.859Z,0.40
2022-11-16T02:52:33.403Z,1.00
2022-11-16T02:54:59.836Z,2.00
2022-11-16T02:57:32.354Z,4.00
2022-11-16T02:59:59.298Z,1.00
2022-11-16T03:02:35.030Z,0.00
2022-11-16T03:05:13.762Z,0.60
2022-11-16T03:07:44.094Z,4.00
2022-11-16T03:10:11.495Z,1.00
2022-11-16T03:12:38.815Z,1.00
2022-11-16T03:15:06.515Z,1.00
2022-11-16T03:17:37.468Z,0.25
2022-11-16T03:20:04.474Z,1.00
2022-11-16T03:22:35.346Z,1.00
2022-11-16T03:25:01.967Z,0.00
2022-11-16T03:27:31.307Z,1.00
2022-11-16T03:29:57.797Z,0.00
2022-11-16T03:32:34.649Z,0.00
2022-11-16T03:35:04.494Z,1.00
2022-11-16T03:37:31.320Z,0.00
2022-11-16T03:39:59.244Z,1.00
2022-11-16T03:42:26.622Z,0.00
2022-11-16T03:44:53.815Z,0.00
2022-11-16T03:47:20.578Z,1.00
2022-11-16T03:49:47.738Z,2.00
2022-11-16T03:52:15.326Z,2.00
2022-11-16T03:54:41.799Z,3.00
2022-11-16T03:57:08.276Z,0.00
2022-11-16T03:59:34.706Z,1.40
2022-11-16T04:02:01.120Z,1.00
2022-11-16T04:04:45.826Z,0.00
2022-11-16T04:07:30.656Z,1.60
2022-11-16T04:10:15.822Z,1.00
2022-11-16T04:13:02.386Z,2.00
2022-11-16T04:15:47.309Z,2.00
2022-11-16T04:18:32.650Z,1.50
2022-11-16T04:21:17.799Z,2.80
2022-11-16T04:24:03.225Z,1.00
2022-11-16T04:26:48.201Z,1.00
2022-11-16T04:29:14.653Z,2.00
2022-11-16T04:31:59.546Z,1.80
2022-11-16T04:34:44.410Z,2.00
2022-11-16T04:37:33.827Z,4.00
2022-11-16T04:40:00.262Z,2.00
2022-11-16T04:42:26.702Z,2.20
2022-11-16T04:45:11.754Z,2.00
2022-11-16T04:47:38.192Z,2.00
2022-11-16T04:50:04.929Z,2.00
2022-11-16T04:52:31.460Z,1.60
2022-11-16T04:54:57.941Z,3.00
2022-11-16T04:57:24.407Z,4.00
2022-11-16T04:59:50.868Z,2.50
2022-11-16T05:02:17.517Z,4.00
2022-11-16T05:04:44.370Z,3.40
2022-11-16T05:07:12.581Z,3.00
2022-11-16T05:09:46.466Z,5.00
2022-11-16T05:12:16.080Z,4.00
2022-11-16T05:14:42.847Z,14.00
2022-11-16T05:17:10.712Z,11.75
2022-11-16T05:19:56.767Z,4.00
2022-11-16T05:22:23.520Z,4.00
2022-11-16T05:24:50.262Z,4.00
2022-11-16T05:27:19.156Z,9.00
2022-11-16T05:29:45.825Z,4.00
2022-11-16T05:32:12.891Z,3.60
2022-11-16T05:34:39.401Z,4.00
2022-11-16T05:37:06.134Z,4.00
2022-11-16T05:39:32.553Z,4.40
2022-11-16T05:41:58.972Z,5.60
2022-11-16T05:44:25.785Z,4.00
2022-11-16T05:46:52.236Z,6.80
2022-11-16T05:49:18.766Z,4.00
2022-11-16T05:51:46.044Z,4.25
2022-11-16T05:54:13.429Z,3.60
2022-11-16T05:56:39.940Z,3.00
2022-11-16T05:59:06.496Z,6.40
2022-11-16T06:01:33.125Z,9.75
2022-11-16T06:04:00.461Z,6.40
2022-11-16T06:06:27.344Z,6.00
2022-11-16T06:08:53.941Z,5.00
2022-11-16T06:11:20.406Z,5.00
2022-11-16T06:13:46.874Z,6.00
2022-11-16T06:16:13.326Z,4.50
2022-11-16T06:18:40.711Z,7.50
2022-11-16T06:21:07.728Z,6.20
2022-11-16T06:23:34.426Z,7.00
2022-11-16T06:26:01.280Z,3.60
2022-11-16T06:28:27.771Z,8.80
2022-11-16T06:30:54.500Z,7.00
2022-11-16T06:33:20.936Z,4.60
2022-11-16T06:35:47.369Z,5.25
2022-11-16T06:38:18.546Z,4.00
2022-11-16T06:40:52.401Z,7.00
2022-11-16T06:43:19.340Z,6.00
2022-11-16T06:45:50.534Z,6.60
2022-11-16T06:48:17.547Z,7.00
2022-11-16T06:50:44.005Z,7.00
2022-11-16T06:53:10.877Z,6.00
2022-11-16T06:55:37.469Z,8.00
2022-11-16T06:58:03.927Z,5.80
2022-11-16T07:00:30.475Z,6.00
2022-11-16T07:02:56.889Z,6.60
2022-11-16T07:05:23.321Z,7.50
2022-11-16T07:07:53.478Z,47.20
2022-11-16T07:10:19.911Z,62.25
2022-11-16T07:12:46.306Z,53.25
2022-11-16T07:15:12.742Z,23.00
2022-11-16T07:17:41.417Z,11.25
2022-11-16T07:20:08.120Z,16.75
2022-11-16T07:22:34.535Z,12.25
2022-11-16T07:25:00.937Z,15.40
2022-11-16T07:27:27.449Z,10.00
2022-11-16T07:29:53.866Z,7.20
2022-11-16T07:32:20.284Z,8.00
2022-11-16T07:34:46.724Z,26.60
2022-11-16T07:37:13.121Z,21.80
2022-11-16T07:39:40.747Z,61.00
2022-11-16T07:42:11.585Z,27.67
2022-11-16T07:44:38.682Z,16.25
2022-11-16T07:47:05.649Z,25.75
2022-11-16T07:49:32.062Z,14.60
2022-11-16T07:51:58.525Z,21.00
2022-11-16T07:54:25.001Z,13.00
2022-11-16T07:56:51.502Z,11.50
2022-11-16T07:59:17.925Z,7.50
2022-11-16T08:01:46.523Z,7.00
2022-11-16T08:04:13.033Z,2.00
2022-11-16T08:06:39.452Z,6.50
2022-11-16T08:09:05.893Z,7.00
2022-11-16T08:11:32.385Z,7.00
2022-11-16T08:13:58.881Z,4.00
2022-11-16T08:16:25.359Z,3.00
2022-11-16T08:18:51.793Z,3.00
2022-11-16T08:21:18.931Z,4.00
2022-11-16T08:23:45.960Z,4.00
2022-11-16T08:26:15.287Z,4.00
2022-11-16T08:28:42.684Z,5.00
2022-11-16T08:31:20.927Z,4.00
2022-11-16T08:33:48.133Z,3.60
2022-11-16T08:36:17.529Z,4.00
2022-11-16T08:38:48.142Z,5.20
2022-11-16T08:41:15.083Z,3.00
2022-11-16T08:43:41.622Z,5.00
2022-11-16T08:46:08.718Z,6.00
2022-11-16T08:48:36.230Z,3.00
2022-11-16T08:51:20.415Z,5.00
2022-11-16T08:53:48.582Z,4.00
2022-11-16T08:56:15.639Z,4.00
2022-11-16T08:58:43.638Z,3.00
2022-11-16T09:01:11.148Z,3.50
2022-11-16T09:03:38.768Z,3.50
2022-11-16T09:06:06.584Z,4.20
2022-11-16T09:08:33.463Z,4.60
2022-11-16T09:11:00.312Z,3.00
2022-11-16T09:13:26.727Z,1.40
2022-11-16T09:15:57.483Z,2.50
2022-11-16T09:18:24.140Z,2.40
2022-11-16T09:20:50.769Z,4.00
2022-11-16T09:23:22.279Z,1.60
2022-11-16T09:25:51.415Z,2.00
2022-11-16T09:28:18.543Z,1.75
2022-11-16T09:30:46.496Z,2.00
2022-11-16T09:33:13.436Z,1.00
2022-11-16T09:35:39.961Z,1.00
2022-11-16T09:38:06.834Z,1.75
2022-11-16T09:40:35.406Z,1.00
2022-11-16T09:43:01.997Z,1.00
2022-11-16T09:45:40.701Z,1.80
2022-11-16T09:48:12.090Z,1.00
2022-11-16T09:50:44.337Z,2.00
2022-11-16T09:53:13.768Z,1.60
2022-11-16T09:55:46.455Z,1.00
2022-11-16T09:58:14.740Z,2.00
2022-11-16T10:00:47.478Z,1.00
2022-11-16T10:03:14.731Z,2.80
2022-11-16T10:05:49.067Z,1.00
2022-11-16T10:08:25.409Z,0.40
2022-11-16T10:11:01.960Z,2.60
2022-11-16T10:13:47.128Z,8.60
2022-11-16T10:16:32.319Z,2.75
2022-11-16T10:19:04.550Z,3.00
2022-11-16T10:21:42.207Z,3.75
2022-11-16T10:24:11.680Z,4.60
2022-11-16T10:26:42.134Z,3.00
2022-11-16T10:29:20.803Z,4.00
2022-11-16T10:31:51.585Z,2.00
2022-11-16T10:34:24.812Z,2.00
2022-11-16T10:36:51.341Z,1.00
2022-11-16T10:39:19.237Z,2.00
2022-11-16T10:41:50.580Z,2.00
2022-11-16T10:44:19.980Z,2.40
2022-11-16T10:46:53.382Z,3.40
2022-11-16T10:49:25.378Z,2.50
2022-11-16T10:51:51.831Z,1.00
2022-11-16T10:54:18.385Z,1.00
2022-11-16T10:56:47.184Z,1.40
2022-11-16T10:59:14.415Z,1.00
2022-11-16T11:01:43.475Z,2.00
2022-11-16T11:04:12.944Z,1.60
2022-11-16T11:06:40.273Z,2.00
2022-11-16T11:09:22.276Z,1.40
2022-11-16T11:12:16.386Z,1.00
2022-11-16T11:14:54.293Z,1.60
2022-11-16T11:17:20.691Z,1.25
2022-11-16T11:19:56.626Z,0.25
2022-11-16T11:22:23.303Z,0.40
2022-11-16T11:24:50.202Z,1.00
2022-11-16T11:27:28.990Z,4.00
2022-11-16T11:29:58.746Z,2.00
2022-11-16T11:32:33.160Z,2.67
2022-11-16T11:35:02.987Z,3.00
2022-11-16T11:37:31.679Z,0.00
2022-11-16T11:40:27.371Z,3.40
2022-11-16T11:42:53.787Z,1.00
2022-11-16T11:45:21.586Z,2.00
2022-11-16T11:48:00.063Z,2.00
2022-11-16T11:50:38.728Z,3.00
2022-11-16T11:53:16.520Z,1.00
2022-11-16T11:55:42.930Z,1.00
2022-11-16T11:58:14.249Z,1.00
2022-11-16T12:00:56.799Z,4.40
2022-11-16T12:03:32.308Z,5.60
2022-11-16T12:06:07.700Z,1.00
2022-11-16T12:08:47.393Z,0.40
2022-11-16T12:11:22.847Z,4.00
2022-11-16T12:14:16.440Z,2.80
2022-11-16T12:16:45.640Z,4.50
2022-11-16T12:19:30.392Z,0.40
2022-11-16T12:22:03.178Z,1.00
2022-11-16T12:24:29.571Z,5.00
2022-11-16T12:27:02.281Z,8.00
2022-11-16T12:29:34.567Z,1.20
2022-11-16T12:32:12.477Z,2.60
2022-11-16T12:34:44.915Z,1.00
2022-11-16T12:37:17.501Z,0.00
2022-11-16T12:39:45.463Z,1.25
2022-11-16T12:42:15.043Z,1.60
2022-11-16T12:44:57.426Z,5.00
2022-11-16T12:47:23.893Z,8.25
2022-11-16T12:50:25.625Z,3.50
2022-11-16T12:53:07.166Z,0.20
2022-11-16T12:55:40.904Z,13.00
2022-11-16T12:58:13.084Z,1.50
2022-11-16T13:00:50.468Z,1.00
2022-11-16T13:03:36.387Z,1.00
2022-11-16T13:06:16.675Z,1.00
2022-11-16T13:08:43.145Z,3.00
2022-11-16T13:11:14.751Z,1.00
2022-11-16T13:13:42.458Z,2.00
2022-11-16T13:16:09.648Z,2.00
2022-11-16T13:18:38.888Z,1.20
2022-11-16T13:21:25.711Z,6.40
2022-11-16T13:24:09.017Z,2.00
2022-11-16T13:26:54.345Z,10.80
2022-11-16T13:29:23.763Z,8.00
2022-11-16T13:32:00.903Z,1.00
2022-11-16T13:34:30.604Z,1.00
2022-11-16T13:36:57.175Z,0.00
2022-11-16T13:39:58.644Z,2.00
2022-11-16T13:42:26.455Z,1.25
2022-11-16T13:44:53.429Z,1.00
2022-11-16T13:47:24.754Z,2.50
2022-11-16T13:49:53.397Z,1.60
2022-11-16T13:52:28.619Z,2.00
2022-11-16T13:55:01.632Z,4.40
2022-11-16T13:57:28.128Z,2.00
2022-11-16T14:00:00.425Z,1.75
2022-11-16T14:02:36.241Z,2.00
2022-11-16T14:05:14.055Z,2.60
2022-11-16T14:07:46.343Z,2.40
2022-11-16T14:10:32.725Z,2.50
2022-11-16T14:13:04.314Z,2.20
2022-11-16T14:15:32.023Z,4.25
2022-11-16T14:18:07.474Z,5.00
2022-11-16T14:20:39.813Z,3.25
2022-11-16T14:23:12.000Z,1.00
2022-11-16T14:25:47.558Z,4.25
2022-11-16T14:28:22.279Z,2.00
2022-11-16T14:30:55.062Z,2.50
2022-11-16T14:33:28.720Z,2.00
2022-11-16T14:35:55.231Z,2.40
2022-11-16T14:38:30.638Z,1.50
2022-11-16T14:40:59.633Z,3.00
2022-11-16T14:43:40.581Z,65.00
2022-11-16T14:46:20.670Z,28.40
2022-11-16T14:48:47.484Z,7.00
2022-11-16T14:51:16.512Z,11.40
2022-11-16T14:53:52.534Z,17.50
2022-11-16T14:56:19.256Z,23.60
2022-11-16T14:58:56.769Z,50.00
2022-11-16T15:01:26.032Z,50.20
2022-11-16T15:03:52.647Z,49.00
2022-11-16T15:06:19.493Z,41.75
2022-11-16T15:08:48.975Z,57.40
2022-11-16T15:11:54.771Z,39.00
2022-11-16T15:14:22.899Z,9.75
2022-11-16T15:16:53.273Z,5.00
2022-11-16T15:19:20.089Z,6.00
2022-11-16T15:21:56.912Z,4.00
2022-11-16T15:24:31.135Z,10.60
2022-11-16T15:27:18.298Z,26.00
2022-11-16T15:29:46.922Z,25.50
2022-11-16T15:32:15.719Z,15.60
2022-11-16T15:34:42.561Z,9.00
2022-11-16T15:37:12.350Z,15.00
2022-11-16T15:39:39.587Z,8.00
2022-11-16T15:42:06.089Z,5.60
2022-11-16T15:44:33.169Z,4.50
2022-11-16T15:46:59.690Z,4.20
2022-11-16T15:49:34.331Z,4.00
2022-11-16T15:52:01.256Z,13.25
2022-11-16T15:54:51.040Z,9.00
2022-11-16T15:57:18.318Z,5.00
2022-11-16T15:59:48.706Z,3.75
2022-11-16T16:02:22.449Z,1.00
2022-11-16T16:04:49.316Z,3.50
2022-11-16T16:07:34.710Z,4.00
2022-11-16T16:10:13.407Z,6.00
2022-11-16T16:12:51.920Z,5.60
2022-11-16T16:15:21.875Z,4.20
2022-11-16T16:17:48.839Z,3.00
2022-11-16T16:20:18.318Z,6.40
2022-11-16T16:22:45.007Z,6.80
2022-11-16T16:25:31.529Z,6.00
2022-11-16T16:28:01.054Z,6.20
2022-11-16T16:30:28.814Z,7.00
2022-11-16T16:32:55.344Z,5.75
2022-11-16T16:35:23.641Z,3.00
2022-11-16T16:37:51.042Z,8.00
2022-11-16T16:40:17.964Z,6.00
2022-11-16T16:42:48.127Z,9.00
2022-11-16T16:45:19.838Z,7.00
2022-11-16T16:47:46.439Z,8.80
2022-11-16T16:50:12.998Z,7.00
2022-11-16T16:52:39.936Z,7.00
2022-11-16T16:55:06.515Z,7.00
2022-11-16T16:57:33.056Z,4.40
2022-11-16T16:59:59.637Z,6.20
2022-11-16T17:02:26.907Z,5.75
2022-11-16T17:04:53.490Z,3.25
2022-11-16T17:07:20.060Z,6.40
2022-11-16T17:09:46.760Z,3.75
2022-11-16T17:12:13.661Z,3.00
2022-11-16T17:14:40.277Z,4.40
2022-11-16T17:17:06.866Z,4.00
2022-11-16T17:19:33.440Z,4.60
2022-11-16T17:22:00.133Z,4.60
2022-11-16T17:24:26.870Z,5.25
2022-11-16T17:26:53.715Z,5.00
2022-11-16T17:29:20.428Z,9.00
2022-11-16T17:31:48.652Z,9.00
2022-11-16T17:34:15.418Z,6.00
2022-11-16T17:36:42.785Z,7.00
2022-11-16T17:39:09.558Z,9.00
2022-11-16T17:41:36.537Z,8.75
2022-11-16T17:44:03.558Z,8.40
2022-11-16T17:46:30.213Z,6.80
2022-11-16T17:48:56.850Z,7.20
2022-11-16T17:51:24.851Z,9.60
2022-11-16T17:53:52.032Z,10.00
2022-11-16T17:56:20.533Z,13.80
2022-11-16T17:58:47.629Z,10.00
2022-11-16T18:01:14.560Z,10.00
2022-11-16T18:03:41.517Z,12.50
2022-11-16T18:06:09.511Z,11.40
2022-11-16T18:08:36.969Z,14.00
2022-11-16T18:11:04.425Z,16.00
2022-11-16T18:13:31.340Z,14.00
2022-11-16T18:16:03.990Z,15.00
2022-11-16T18:18:30.635Z,13.80
2022-11-16T18:20:57.236Z,19.50
2022-11-16T18:23:23.778Z,16.00
2022-11-16T18:25:50.370Z,12.40
2022-11-16T18:28:18.137Z,16.40
2022-11-16T18:30:44.676Z,12.60
2022-11-16T18:33:11.431Z,13.00
2022-11-16T18:35:38.035Z,13.40
2022-11-16T18:38:07.014Z,13.25
2022-11-16T18:40:33.810Z,10.25
2022-11-16T18:43:00.290Z,14.25
2022-11-16T18:45:26.884Z,9.50
2022-11-16T18:47:53.404Z,12.00
2022-11-16T18:50:26.504Z,12.80
2022-11-16T18:52:54.504Z,8.00
2022-11-16T18:55:21.034Z,9.75
2022-11-16T18:57:47.584Z,11.80
2022-11-16T19:00:15.318Z,14.20
2022-11-16T19:02:41.833Z,16.00
2022-11-16T19:05:08.415Z,13.40
2022-11-16T19:07:35.029Z,13.00
2022-11-16T19:10:01.543Z,17.20
2022-11-16T19:12:28.123Z,20.50
2022-11-16T19:14:54.625Z,16.00
2022-11-16T19:17:24.711Z,14.00
2022-11-16T19:19:51.291Z,16.40
2022-11-16T19:22:18.473Z,13.00
2022-11-16T19:24:45.179Z,14.00
2022-11-16T19:27:12.412Z,16.00
2022-11-16T19:29:39.171Z,19.50
2022-11-16T19:32:05.966Z,14.60
2022-11-16T19:34:33.626Z,14.00
2022-11-16T19:37:00.536Z,22.00
2022-11-16T19:39:27.211Z,16.50
2022-11-16T19:41:53.844Z,14.40
2022-11-16T19:44:20.459Z,16.00
2022-11-16T19:46:47.397Z,39.00
2022-11-16T19:49:19.945Z,28.50
2022-11-16T19:51:47.135Z,28.40
2022-11-16T19:54:15.108Z,23.25
2022-11-16T19:56:42.482Z,20.25
2022-11-16T19:59:09.777Z,19.00
2022-11-16T20:01:36.643Z,19.60
2022-11-16T20:04:03.938Z,21.00
2022-11-16T20:06:32.480Z,26.00
2022-11-16T20:09:08.565Z,21.00
2022-11-16T20:11:36.953Z,23.40
2022-11-16T20:14:05.333Z,29.80
2022-11-16T20:16:38.450Z,29.40
2022-11-16T20:19:06.644Z,23.60
2022-11-16T20:21:34.881Z,38.25
2022-11-16T20:24:06.521Z,30.00
2022-11-16T20:26:34.861Z,33.00
2022-11-16T20:29:01.839Z,56.00
2022-11-16T20:31:30.003Z,45.75
2022-11-16T20:33:57.876Z,49.00
2022-11-16T20:36:25.654Z,48.00
2022-11-16T20:38:52.656Z,48.00
2022-11-16T20:41:21.064Z,44.50
2022-11-16T20:43:50.152Z,48.80
2022-11-16T20:46:17.908Z,48.00
2022-11-16T20:48:44.839Z,43.00
2022-11-16T20:51:13.207Z,30.60
2022-11-16T20:53:40.113Z,25.60
2022-11-16T20:56:07.787Z,26.60
2022-11-16T20:58:34.943Z,30.00
2022-11-16T21:01:08.546Z,37.20
2022-11-16T21:03:35.786Z,38.00
2022-11-16T21:06:02.833Z,44.00
2022-11-16T21:08:32.540Z,32.40
2022-11-16T21:10:59.292Z,36.75
2022-11-16T21:13:44.379Z,32.60
2022-11-16T21:16:11.812Z,27.75
2022-11-16T21:18:39.597Z,27.00
2022-11-16T21:21:12.372Z,33.00
2022-11-16T21:23:40.028Z,32.75
2022-11-16T21:26:07.848Z,32.60
2022-11-16T21:28:34.412Z,32.60
2022-11-16T21:31:02.721Z,46.00
2022-11-16T21:33:29.643Z,39.00
2022-11-16T21:35:56.315Z,41.40
2022-11-16T21:38:23.699Z,41.25
2022-11-16T21:40:50.237Z,42.60
2022-11-16T21:43:17.186Z,30.40
2022-11-16T21:45:47.715Z,34.25
2022-11-16T21:48:14.453Z,28.80
2022-11-16T21:50:42.196Z,27.75
2022-11-16T21:53:09.002Z,33.80
2022-11-16T21:55:35.841Z,30.40
2022-11-16T21:58:05.109Z,33.60
2022-11-16T22:00:31.690Z,29.80
2022-11-16T22:02:58.196Z,29.00
2022-11-16T22:05:43.197Z,26.50
2022-11-16T22:08:11.794Z,30.00
2022-11-16T22:10:38.252Z,25.25
2022-11-16T22:13:04.656Z,22.40
2022-11-16T22:15:31.096Z,20.60
2022-11-16T22:17:57.506Z,37.00
2022-11-16T22:20:23.934Z,29.33
2022-11-16T22:22:50.381Z,30.00
2022-11-16T22:25:17.246Z,25.80
2022-11-16T22:28:05.961Z,33.33
2022-11-16T22:30:33.018Z,36.00
2022-11-16T22:32:59.701Z,32.00
2022-11-16T22:35:26.109Z,31.20
2022-11-16T22:37:52.597Z,32.40
2022-11-16T22:40:19.037Z,37.00
2022-11-16T22:42:45.898Z,33.40
2022-11-16T22:45:12.491Z,28.50
2022-11-16T22:47:38.918Z,23.20
2022-11-16T22:50:05.527Z,26.60
2022-11-16T22:52:32.020Z,20.60
2022-11-16T22:54:58.401Z,21.20
2022-11-16T22:57:24.841Z,21.60
2022-11-16T22:59:51.234Z,18.20
2022-11-16T23:02:17.801Z,21.20
2022-11-16T23:04:44.224Z,19.00
2022-11-16T23:07:10.684Z,23.25
2022-11-16T23:09:37.159Z,22.00
2022-11-16T23:12:22.248Z,23.25
2022-11-16T23:15:07.008Z,18.60
2022-11-16T23:17:33.497Z,22.00
2022-11-16T23:20:18.563Z,17.00
2022-11-16T23:23:03.819Z,21.00
2022-11-16T23:25:56.283Z,18.00
2022-11-16T23:28:22.770Z,15.00
2022-11-16T23:30:49.227Z,14.75
2022-11-16T23:33:15.761Z,17.40
2022-11-16T23:35:42.201Z,17.60
2022-11-16T23:38:08.740Z,19.75
2022-11-16T23:40:36.265Z,15.00
2022-11-16T23:43:21.686Z,18.00
2022-11-16T23:45:48.318Z,17.40
2022-11-16T23:48:15.589Z,14.80
2022-11-16T23:50:42.777Z,15.40
2022-11-16T23:53:09.952Z,17.80
2022-11-16T23:55:40.610Z,12.25
2022-11-16T23:58:10.842Z,12.00
